createdAt,value
2023-02-05T00:01:49.184Z,64.25
2023-02-05T00:04:17.101Z,63.91
2023-02-05T00:06:44.919Z,62.89
2023-02-05T00:09:13.017Z,62.02
2023-02-05T00:11:40.820Z,61.88
2023-02-05T00:14:08.621Z,61.77
2023-02-05T00:16:36.958Z,63.20
2023-02-05T00:19:06.107Z,64.00
2023-02-05T00:21:33.942Z,63.66
2023-02-05T00:24:01.810Z,63.13
2023-02-05T00:26:29.663Z,63.69
2023-02-05T00:28:57.668Z,63.30
2023-02-05T00:31:25.896Z,63.95
2023-02-05T00:33:54.054Z,63.35
2023-02-05T00:36:25.546Z,62.93
2023-02-05T00:38:56.167Z,63.21
2023-02-05T00:41:23.958Z,63.90
2023-02-05T00:43:51.760Z,64.17
2023-02-05T00:46:19.642Z,63.71
2023-02-05T00:48:47.476Z,62.85
2023-02-05T00:51:15.306Z,62.78
2023-02-05T00:53:44.457Z,64.42
2023-02-05T00:56:12.405Z,65.55
2023-02-05T00:58:40.576Z,60.04
2023-02-05T01:01:08.501Z,59.16
2023-02-05T01:03:36.245Z,58.29
2023-02-05T01:06:05.075Z,57.67
2023-02-05T01:08:32.927Z,56.06
2023-02-05T01:11:02.410Z,55.55
2023-02-05T01:13:30.168Z,55.39
2023-02-05T01:15:58.027Z,54.98
2023-02-05T01:18:26.967Z,56.97
2023-02-05T01:20:54.858Z,56.77
2023-02-05T01:23:23.317Z,57.22
2023-02-05T01:25:51.055Z,56.56
2023-02-05T01:28:20.242Z,57.65
2023-02-05T01:30:49.560Z,59.57
2023-02-05T01:33:17.578Z,57.82
2023-02-05T01:35:45.923Z,56.63
2023-02-05T01:38:14.101Z,57.04
2023-02-05T01:40:42.532Z,57.76
2023-02-05T01:43:13.920Z,57.82
2023-02-05T01:46:12.320Z,55.86
2023-02-05T01:48:44.024Z,55.31
2023-02-05T01:51:15.463Z,55.04
2023-02-05T01:53:44.819Z,55.57
2023-02-05T01:56:17.807Z,55.45
2023-02-05T01:58:50.741Z,56.93
2023-02-05T02:01:20.156Z,55.64
2023-02-05T02:03:50.311Z,56.49
2023-02-05T02:06:18.317Z,56.68
2023-02-05T02:08:46.773Z,56.34
2023-02-05T02:11:17.207Z,56.27
2023-02-05T02:13:46.881Z,57.80
2023-02-05T02:16:16.196Z,59.59
2023-02-05T02:18:47.188Z,57.21
2023-02-05T02:21:37.408Z,57.39
2023-02-05T02:24:22.676Z,57.39
2023-02-05T02:27:22.209Z,56.89
2023-02-05T02:29:57.950Z,57.35
2023-02-05T02:32:32.634Z,56.58
2023-02-05T02:35:08.113Z,56.42
2023-02-05T02:37:40.980Z,56.10
2023-02-05T02:40:16.915Z,56.68
2023-02-05T02:42:49.731Z,55.75
2023-02-05T02:45:22.462Z,55.75
2023-02-05T02:47:54.359Z,55.32
2023-02-05T02:50:26.719Z,55.99
2023-02-05T02:52:56.137Z,55.37
2023-02-05T02:55:25.534Z,54.89
2023-02-05T02:57:55.999Z,54.47
2023-02-05T03:00:28.011Z,55.09
2023-02-05T03:03:01.017Z,54.85
2023-02-05T03:05:31.055Z,54.28
2023-02-05T03:08:03.539Z,53.79
2023-02-05T03:10:40.953Z,54.21
2023-02-05T03:13:10.469Z,55.68
2023-02-05T03:15:44.527Z,55.87
2023-02-05T03:18:13.415Z,58.67
2023-02-05T03:20:48.100Z,57.64
2023-02-05T03:23:16.599Z,58.65
2023-02-05T03:25:44.866Z,57.57
2023-02-05T03:28:14.680Z,56.79
2023-02-05T03:30:54.460Z,56.84
2023-02-05T03:33:35.599Z,56.27
2023-02-05T03:36:13.685Z,55.45
2023-02-05T03:38:56.780Z,55.20
2023-02-05T03:41:54.208Z,56.08
2023-02-05T03:44:30.653Z,56.35
2023-02-05T03:47:05.339Z,59.24
2023-02-05T03:49:46.115Z,58.14
2023-02-05T03:52:18.273Z,57.72
2023-02-05T03:54:53.452Z,57.96
2023-02-05T03:57:31.455Z,58.45
2023-02-05T04:00:00.237Z,58.97
2023-02-05T04:02:31.319Z,57.92
2023-02-05T04:05:00.223Z,59.02
2023-02-05T04:07:29.244Z,59.56
2023-02-05T04:09:57.059Z,59.94
2023-02-05T04:12:25.047Z,60.41
2023-02-05T04:14:52.798Z,57.94
2023-02-05T04:17:20.652Z,59.28
2023-02-05T04:19:50.594Z,58.83
2023-02-05T04:22:20.396Z,59.24
2023-02-05T04:24:48.799Z,58.45
2023-02-05T04:27:18.095Z,58.14
2023-02-05T04:29:45.939Z,58.61
2023-02-05T04:32:13.814Z,58.20
2023-02-05T04:34:41.738Z,58.87
2023-02-05T04:37:13.521Z,59.54
2023-02-05T04:39:41.406Z,60.13
2023-02-05T04:42:09.246Z,58.84
2023-02-05T04:44:36.989Z,59.82
2023-02-05T04:47:04.837Z,59.70
2023-02-05T04:49:33.454Z,58.74
2023-02-05T04:52:01.302Z,59.37
2023-02-05T04:54:31.620Z,59.17
2023-02-05T04:56:59.436Z,58.21
2023-02-05T04:59:27.179Z,58.75
2023-02-05T05:01:54.924Z,60.39
2023-02-05T05:04:22.919Z,61.56
2023-02-05T05:06:50.654Z,64.42
2023-02-05T05:09:20.845Z,65.08
2023-02-05T05:11:49.971Z,65.55
2023-02-05T05:14:17.841Z,66.23
2023-02-05T05:16:45.698Z,67.16
2023-02-05T05:19:13.573Z,67.03
2023-02-05T05:21:41.364Z,69.37
2023-02-05T05:24:09.210Z,71.64
2023-02-05T05:26:38.030Z,72.98
2023-02-05T05:29:07.241Z,72.20
2023-02-05T05:31:35.091Z,73.02
2023-02-05T05:34:02.957Z,72.14
2023-02-05T05:36:31.073Z,71.97
2023-02-05T05:39:18.833Z,70.71
2023-02-05T05:42:03.876Z,71.12
2023-02-05T05:44:32.996Z,70.68
2023-02-05T05:47:00.753Z,70.53
2023-02-05T05:49:28.583Z,69.83
2023-02-05T05:51:56.322Z,69.03
2023-02-05T05:54:24.069Z,69.74
2023-02-05T05:56:51.882Z,69.21
2023-02-05T05:59:19.658Z,70.50
2023-02-05T06:01:48.777Z,70.60
2023-02-05T06:04:16.721Z,70.07
2023-02-05T06:06:44.512Z,69.27
2023-02-05T06:09:12.376Z,70.00
2023-02-05T06:11:40.142Z,69.15
2023-02-05T06:14:07.921Z,69.08
2023-02-05T06:16:35.690Z,69.23
2023-02-05T06:19:04.936Z,68.00
2023-02-05T06:21:32.968Z,67.45
2023-02-05T06:24:00.705Z,67.29
2023-02-05T06:26:28.578Z,68.80
2023-02-05T06:28:57.150Z,68.08
2023-02-05T06:31:25.055Z,69.27
2023-02-05T06:33:52.849Z,70.48
2023-02-05T06:36:22.008Z,70.17
2023-02-05T06:38:49.761Z,66.42
2023-02-05T06:41:17.505Z,66.92
2023-02-05T06:43:45.369Z,67.13
2023-02-05T06:46:13.149Z,65.92
2023-02-05T06:48:40.918Z,67.32
2023-02-05T06:51:08.690Z,67.50
2023-02-05T06:53:37.854Z,67.74
2023-02-05T06:56:06.500Z,66.98
2023-02-05T06:58:34.238Z,66.79
2023-02-05T07:01:03.421Z,66.51
2023-02-05T07:03:31.188Z,66.96
2023-02-05T07:06:03.564Z,66.79
2023-02-05T07:08:32.085Z,66.25
2023-02-05T07:11:01.801Z,64.57
2023-02-05T07:13:30.942Z,64.40
2023-02-05T07:15:58.784Z,65.99
2023-02-05T07:18:26.577Z,65.96
2023-02-05T07:20:54.331Z,65.32
2023-02-05T07:23:22.371Z,67.93
2023-02-05T07:25:50.180Z,67.80
2023-02-05T07:28:19.347Z,69.51
2023-02-05T07:30:47.748Z,69.60
2023-02-05T07:33:15.585Z,68.02
2023-02-05T07:35:43.917Z,69.23
2023-02-05T07:38:11.930Z,72.23
2023-02-05T07:40:39.725Z,70.00
2023-02-05T07:43:07.521Z,69.23
2023-02-05T07:45:36.831Z,69.65
2023-02-05T07:48:05.060Z,68.75
2023-02-05T07:50:32.911Z,70.04
2023-02-05T07:53:00.692Z,68.45
2023-02-05T07:55:28.522Z,68.86
2023-02-05T07:57:56.317Z,69.88
2023-02-05T08:00:24.833Z,72.08
2023-02-05T08:02:54.020Z,70.62
2023-02-05T08:05:21.737Z,72.11
2023-02-05T08:07:49.972Z,72.11
2023-02-05T08:10:17.983Z,71.73
2023-02-05T08:12:45.769Z,73.65
2023-02-05T08:15:13.802Z,71.63
2023-02-05T08:17:41.637Z,71.84
2023-02-05T08:20:12.873Z,73.77
2023-02-05T08:22:42.295Z,72.98
2023-02-05T08:25:12.964Z,72.61
2023-02-05T08:27:42.585Z,72.57
2023-02-05T08:30:13.162Z,71.64
2023-02-05T08:32:40.982Z,72.00
2023-02-05T08:35:09.284Z,70.77
2023-02-05T08:37:38.411Z,72.65
2023-02-05T08:40:06.774Z,71.89
2023-02-05T08:42:34.541Z,70.99
2023-02-05T08:45:03.399Z,68.88
2023-02-05T08:47:31.187Z,67.62
2023-02-05T08:49:58.899Z,67.94
2023-02-05T08:52:26.694Z,67.01
2023-02-05T08:54:55.824Z,68.63
2023-02-05T08:57:23.632Z,70.41
2023-02-05T08:59:51.387Z,71.11
2023-02-05T09:02:19.115Z,71.75
2023-02-05T09:04:47.219Z,73.06
2023-02-05T09:07:15.066Z,73.28
2023-02-05T09:09:43.058Z,73.73
2023-02-05T09:12:12.323Z,73.51
2023-02-05T09:14:40.483Z,73.30
2023-02-05T09:17:10.440Z,72.36
2023-02-05T09:19:39.475Z,72.87
2023-02-05T09:22:07.653Z,72.09
2023-02-05T09:24:37.555Z,72.38
2023-02-05T09:27:06.697Z,71.91
2023-02-05T09:29:36.031Z,70.47
2023-02-05T09:32:03.723Z,70.96
2023-02-05T09:34:32.711Z,69.48
2023-02-05T09:37:00.460Z,69.69
2023-02-05T09:40:12.002Z,69.08
2023-02-05T09:42:28.867Z,68.87
2023-02-05T09:45:17.364Z,67.70
2023-02-05T09:47:55.774Z,69.15
2023-02-05T09:50:29.499Z,69.74
2023-02-05T09:53:02.829Z,69.13
2023-02-05T09:55:34.811Z,68.10
2023-02-05T09:58:07.906Z,69.25
2023-02-05T10:00:45.892Z,70.21
2023-02-05T10:03:24.248Z,70.38
2023-02-05T10:06:05.972Z,70.54
2023-02-05T10:08:40.226Z,69.29
2023-02-05T10:11:18.227Z,68.33
2023-02-05T10:13:48.615Z,67.98
2023-02-05T10:16:32.938Z,67.43
2023-02-05T10:19:22.549Z,67.50
2023-02-05T10:22:11.834Z,71.16
2023-02-05T10:25:06.384Z,76.36
2023-02-05T10:27:44.301Z,78.54
2023-02-05T10:30:22.416Z,79.02
2023-02-05T10:32:57.730Z,79.11
2023-02-05T10:35:35.151Z,78.39
2023-02-05T10:38:06.827Z,79.70
2023-02-05T10:40:40.072Z,79.99
2023-02-05T10:43:20.462Z,78.79
2023-02-05T10:45:49.612Z,79.07
2023-02-05T10:48:29.520Z,78.76
2023-02-05T10:51:02.973Z,80.04
2023-02-05T10:53:32.038Z,79.61
2023-02-05T10:56:02.626Z,80.11
2023-02-05T10:58:44.467Z,81.44
2023-02-05T11:01:17.414Z,81.16
2023-02-05T11:03:55.712Z,79.33
2023-02-05T11:06:26.364Z,79.20
2023-02-05T11:08:54.553Z,80.32
2023-02-05T11:11:25.812Z,81.60
2023-02-05T11:13:57.086Z,80.19
2023-02-05T11:16:26.285Z,80.54
2023-02-05T11:19:01.073Z,80.36
2023-02-05T11:21:46.975Z,79.91
2023-02-05T11:24:28.579Z,81.42
2023-02-05T11:27:25.234Z,81.48
2023-02-05T11:29:53.336Z,81.50
2023-02-05T11:32:21.801Z,82.79
2023-02-05T11:34:51.085Z,83.59
2023-02-05T11:37:20.027Z,84.31
2023-02-05T11:39:54.865Z,84.99
2023-02-05T11:42:25.817Z,84.65
2023-02-05T11:44:56.009Z,84.90
2023-02-05T11:47:28.212Z,85.14
2023-02-05T11:49:58.444Z,83.98
2023-02-05T11:52:29.305Z,83.17
2023-02-05T11:54:57.570Z,82.54
2023-02-05T11:57:33.763Z,81.59
2023-02-05T12:00:03.643Z,80.04
2023-02-05T12:02:34.655Z,79.33
2023-02-05T12:05:12.013Z,78.76
2023-02-05T12:07:46.077Z,76.76
2023-02-05T12:10:18.948Z,78.09
2023-02-05T12:13:00.892Z,78.04
2023-02-05T12:15:32.359Z,79.77
2023-02-05T12:18:11.060Z,81.07
2023-02-05T12:20:45.528Z,81.12
2023-02-05T12:23:31.332Z,80.70
2023-02-05T12:26:13.055Z,79.78
2023-02-05T12:28:49.732Z,79.55
2023-02-05T12:31:25.857Z,78.49
2023-02-05T12:34:05.007Z,79.01
2023-02-05T12:36:46.886Z,79.35
2023-02-05T12:39:28.957Z,79.09
2023-02-05T12:42:06.819Z,79.43
2023-02-05T12:44:51.965Z,78.66
2023-02-05T12:47:37.022Z,79.41
2023-02-05T12:50:17.723Z,79.72
2023-02-05T12:53:02.802Z,79.33
2023-02-05T12:55:47.258Z,78.91
2023-02-05T12:58:17.826Z,79.31
2023-02-05T13:00:51.303Z,81.75
2023-02-05T13:03:26.380Z,81.70
2023-02-05T13:05:58.266Z,81.97
2023-02-05T13:08:39.728Z,83.17
2023-02-05T13:11:13.740Z,82.69
2023-02-05T13:13:51.575Z,81.67
2023-02-05T13:16:22.534Z,81.55
2023-02-05T13:18:59.832Z,81.16
2023-02-05T13:21:46.568Z,82.02
2023-02-05T13:24:44.244Z,81.56
2023-02-05T13:27:40.117Z,81.54
2023-02-05T13:30:13.520Z,80.94
2023-02-05T13:32:43.539Z,80.91
2023-02-05T13:35:12.302Z,80.50
2023-02-05T13:37:53.868Z,80.22
2023-02-05T13:40:42.797Z,80.08
2023-02-05T13:43:31.693Z,80.28
2023-02-05T13:46:29.759Z,80.80
2023-02-05T13:49:40.011Z,80.99
2023-02-05T13:52:21.443Z,81.46
2023-02-05T13:55:11.290Z,82.79
2023-02-05T13:58:10.555Z,83.01
2023-02-05T14:00:40.688Z,84.12
2023-02-05T14:03:09.998Z,83.02
2023-02-05T14:05:42.266Z,81.94
2023-02-05T14:08:22.571Z,81.28
2023-02-05T14:10:59.304Z,80.92
2023-02-05T14:13:32.531Z,80.06
2023-02-05T14:16:36.494Z,81.34
2023-02-05T14:19:17.377Z,81.73
2023-02-05T14:22:03.680Z,81.32
2023-02-05T14:24:55.704Z,80.30
2023-02-05T14:27:51.936Z,77.65
2023-02-05T14:30:50.418Z,77.44
2023-02-05T14:33:41.376Z,78.97
2023-02-05T14:36:36.706Z,78.64
2023-02-05T14:39:19.050Z,77.87
2023-02-05T14:41:55.115Z,77.30
2023-02-05T14:44:29.547Z,78.35
2023-02-05T14:47:03.368Z,77.39
2023-02-05T14:49:40.191Z,75.60
2023-02-05T14:52:27.205Z,75.12
2023-02-05T14:55:00.085Z,75.34
2023-02-05T14:57:30.621Z,74.41
2023-02-05T15:00:01.809Z,73.44
2023-02-05T15:03:01.205Z,73.13
2023-02-05T15:05:35.964Z,73.66
2023-02-05T15:08:14.421Z,74.65
2023-02-05T15:10:49.801Z,75.02
2023-02-05T15:13:18.657Z,75.00
2023-02-05T15:16:10.386Z,75.43
2023-02-05T15:18:43.076Z,74.68
2023-02-05T15:21:18.018Z,74.83
2023-02-05T15:23:48.268Z,74.59
2023-02-05T15:26:25.264Z,74.95
2023-02-05T15:28:59.974Z,73.10
2023-02-05T15:31:34.488Z,72.96
2023-02-05T15:34:33.724Z,72.00
2023-02-05T15:37:06.556Z,73.14
2023-02-05T15:39:48.524Z,73.47
2023-02-05T15:42:20.521Z,72.99
2023-02-05T15:44:48.646Z,72.00
2023-02-05T15:47:20.332Z,73.93
2023-02-05T15:49:52.821Z,75.20
2023-02-05T15:52:23.745Z,74.45
2023-02-05T15:54:54.761Z,73.37
2023-02-05T15:57:26.136Z,72.20
2023-02-05T15:59:54.904Z,72.64
2023-02-05T16:02:25.856Z,71.62
2023-02-05T16:04:57.309Z,72.62
2023-02-05T16:07:27.408Z,72.87
2023-02-05T16:09:57.476Z,73.07
2023-02-05T16:12:26.381Z,72.45
2023-02-05T16:15:01.703Z,72.45
2023-02-05T16:17:34.966Z,71.75
2023-02-05T16:20:17.047Z,71.23
2023-02-05T16:22:48.656Z,71.97
2023-02-05T16:25:28.697Z,71.92
2023-02-05T16:27:58.370Z,72.51
2023-02-05T16:30:31.782Z,73.81
2023-02-05T16:33:02.244Z,71.88
2023-02-05T16:35:36.844Z,72.38
2023-02-05T16:38:09.038Z,72.15
2023-02-05T16:40:40.781Z,71.61
2023-02-05T16:43:21.483Z,72.08
2023-02-05T16:46:34.666Z,72.36
2023-02-05T16:49:04.525Z,72.11
2023-02-05T16:51:39.279Z,72.00
2023-02-05T16:54:37.934Z,71.73
2023-02-05T16:57:10.747Z,72.64
2023-02-05T16:59:50.640Z,73.72
2023-02-05T17:02:29.780Z,72.53
2023-02-05T17:04:59.664Z,73.31
2023-02-05T17:07:29.952Z,73.74
2023-02-05T17:10:20.917Z,73.26
2023-02-05T17:12:57.080Z,74.01
2023-02-05T17:15:40.510Z,74.08
2023-02-05T17:18:27.005Z,73.60
2023-02-05T17:21:24.492Z,74.20
2023-02-05T17:23:56.691Z,74.39
2023-02-05T17:26:25.388Z,73.22
2023-02-05T17:28:55.749Z,72.39
2023-02-05T17:31:26.311Z,71.87
2023-02-05T17:33:55.876Z,72.32
2023-02-05T17:36:24.419Z,71.31
2023-02-05T17:38:54.013Z,71.53
2023-02-05T17:41:41.869Z,71.79
2023-02-05T17:44:12.154Z,71.20
2023-02-05T17:46:40.391Z,72.44
2023-02-05T17:49:08.265Z,73.10
2023-02-05T17:51:38.688Z,73.49
2023-02-05T17:54:13.163Z,71.80
2023-02-05T17:56:42.069Z,69.76
2023-02-05T17:59:11.825Z,69.47
2023-02-05T18:01:39.569Z,69.47
2023-02-05T18:04:07.447Z,70.02
2023-02-05T18:06:36.105Z,69.95
2023-02-05T18:09:03.970Z,70.73
2023-02-05T18:11:33.473Z,71.91
2023-02-05T18:14:01.250Z,71.94
2023-02-05T18:16:29.146Z,71.67
2023-02-05T18:18:56.981Z,72.11
2023-02-05T18:21:24.821Z,71.00
2023-02-05T18:23:53.112Z,72.44
2023-02-05T18:26:21.523Z,72.50
2023-02-05T18:28:51.285Z,71.79
2023-02-05T18:31:19.185Z,71.89
2023-02-05T18:33:49.374Z,72.19
2023-02-05T18:36:17.459Z,71.07
2023-02-05T18:38:45.247Z,70.25
2023-02-05T18:41:15.174Z,71.16
2023-02-05T18:43:43.092Z,71.83
2023-02-05T18:46:14.234Z,70.09
2023-02-05T18:48:43.718Z,69.09
2023-02-05T18:51:14.483Z,67.66
2023-02-05T18:53:43.455Z,67.11
2023-02-05T18:56:14.615Z,66.42
2023-02-05T18:58:43.563Z,67.65
2023-02-05T19:01:14.558Z,67.63
2023-02-05T19:03:42.979Z,67.31
2023-02-05T19:06:12.195Z,66.58
2023-02-05T19:08:40.408Z,66.81
2023-02-05T19:11:09.587Z,68.00
2023-02-05T19:13:37.732Z,68.42
2023-02-05T19:16:07.335Z,66.39
2023-02-05T19:18:36.514Z,66.67
2023-02-05T19:21:05.666Z,65.72
2023-02-05T19:23:34.010Z,68.09
2023-02-05T19:26:03.958Z,69.73
2023-02-05T19:28:32.682Z,67.38
2023-02-05T19:31:03.996Z,67.19
2023-02-05T19:33:32.162Z,67.22
2023-02-05T19:36:02.231Z,67.24
2023-02-05T19:38:30.424Z,67.46
2023-02-05T19:40:58.248Z,67.23
2023-02-05T19:43:25.992Z,65.44
2023-02-05T19:45:54.135Z,64.35
2023-02-05T19:48:21.933Z,64.05
2023-02-05T19:50:49.747Z,64.02
2023-02-05T19:53:21.167Z,64.02
2023-02-05T19:55:49.123Z,63.91
2023-02-05T19:58:16.839Z,63.59
2023-02-05T20:00:44.588Z,63.34
2023-02-05T20:03:12.380Z,62.67
2023-02-05T20:05:40.117Z,61.68
2023-02-05T20:08:07.992Z,62.52
2023-02-05T20:10:37.260Z,62.94
2023-02-05T20:13:05.168Z,63.39
2023-02-05T20:15:36.558Z,62.87
2023-02-05T20:18:04.408Z,60.52
2023-02-05T20:20:33.867Z,61.74
2023-02-05T20:23:01.862Z,60.81
2023-02-05T20:25:29.665Z,61.72
2023-02-05T20:27:58.785Z,62.08
2023-02-05T20:30:43.988Z,61.79
2023-02-05T20:33:11.748Z,62.31
2023-02-05T20:35:40.173Z,62.10
2023-02-05T20:38:08.452Z,61.93
2023-02-05T20:40:36.573Z,60.41
2023-02-05T20:43:09.091Z,60.98
2023-02-05T20:45:36.910Z,60.74
2023-02-05T20:48:05.168Z,61.24
2023-02-05T20:50:33.141Z,61.54
2023-02-05T20:53:01.408Z,61.89
2023-02-05T20:55:29.599Z,62.11
2023-02-05T20:57:57.459Z,61.41
2023-02-05T21:00:27.357Z,61.53
2023-02-05T21:02:55.148Z,62.66
2023-02-05T21:05:23.545Z,62.27
2023-02-05T21:07:51.282Z,62.73
2023-02-05T21:10:19.403Z,63.34
2023-02-05T21:12:47.135Z,63.51
2023-02-05T21:15:14.945Z,63.33
2023-02-05T21:17:44.094Z,63.96
2023-02-05T21:20:12.085Z,63.10
2023-02-05T21:22:40.037Z,62.80
2023-02-05T21:25:08.686Z,63.31
2023-02-05T21:27:36.879Z,63.23
2023-02-05T21:30:05.168Z,63.07
2023-02-05T21:32:33.083Z,62.23
2023-02-05T21:35:02.397Z,62.43
2023-02-05T21:37:30.168Z,63.95
2023-02-05T21:40:08.461Z,63.68
2023-02-05T21:42:37.321Z,63.80
2023-02-05T21:45:06.054Z,63.33
2023-02-05T21:47:33.879Z,63.89
2023-02-05T21:50:03.205Z,64.31
2023-02-05T21:52:31.102Z,63.90
2023-02-05T21:54:58.925Z,63.92
2023-02-05T21:57:26.774Z,63.39
2023-02-05T21:59:55.047Z,63.85
2023-02-05T22:02:23.933Z,64.40
2023-02-05T22:04:51.872Z,63.76
2023-02-05T22:07:21.014Z,64.02
2023-02-05T22:09:48.762Z,64.19
2023-02-05T22:12:17.845Z,63.54
2023-02-05T22:14:45.686Z,62.92
2023-02-05T22:17:13.611Z,63.98
2023-02-05T22:19:41.455Z,64.28
2023-02-05T22:22:09.186Z,65.05
2023-02-05T22:24:38.402Z,64.78
2023-02-05T22:27:06.513Z,66.46
2023-02-05T22:29:34.484Z,66.21
2023-02-05T22:32:02.290Z,68.00
2023-02-05T22:34:30.125Z,68.20
2023-02-05T22:36:59.624Z,69.17
2023-02-05T22:39:27.472Z,69.90
2023-02-05T22:41:56.795Z,70.03
2023-02-05T22:44:24.568Z,69.81
2023-02-05T22:46:52.393Z,69.64
2023-02-05T22:49:20.135Z,71.04
2023-02-05T22:51:51.456Z,71.64
2023-02-05T22:54:19.210Z,70.82
2023-02-05T22:56:46.970Z,69.50
2023-02-05T22:59:16.160Z,68.75
2023-02-05T23:01:44.697Z,68.63
2023-02-05T23:04:12.710Z,67.61
2023-02-05T23:06:43.417Z,69.70
2023-02-05T23:09:14.019Z,71.22
2023-02-05T23:11:42.388Z,70.98
2023-02-05T23:14:11.454Z,70.89
2023-02-05T23:16:42.718Z,71.40
2023-02-05T23:19:12.810Z,71.35
2023-02-05T23:21:42.654Z,70.66
2023-02-05T23:24:10.953Z,68.50
2023-02-05T23:26:42.114Z,67.98
2023-02-05T23:29:10.900Z,69.00
2023-02-05T23:31:40.442Z,69.59
2023-02-05T23:34:08.422Z,71.71
2023-02-05T23:36:36.250Z,71.82
2023-02-05T23:39:04.266Z,72.05
2023-02-05T23:41:39.618Z,73.03
2023-02-05T23:44:11.556Z,73.11
2023-02-05T23:46:42.045Z,73.09
2023-02-05T23:49:10.847Z,72.17
2023-02-05T23:51:38.684Z,70.98
2023-02-05T23:54:07.540Z,70.08
2023-02-05T23:56:35.401Z,69.75
2023-02-05T23:59:03.229Z,69.41
